Time;durP1;ratioP1;P1;durP2;ratioP2;P2;SDS_P1;SDS_P2;PMS_P1;PMS_P2;Temp;Humidity;BMP_temperature;BMP_pressure;BME280_temperature;BME280_humidity;BME280_pressure;Samples;Min_cycle;Max_cycle;Signal;HPM_P1;HPM_P2
2023/06/24 00:01:14;;;;;;;7.00;6.40;;;19.00;99.90;;;;;;4952825;29;20580;-78
2023/06/24 00:03:46;;;;;;;7.45;6.45;;;19.10;99.90;;;;;;4954952;28;20233;-78
2023/06/24 00:06:18;;;;;;;8.45;6.50;;;18.90;99.90;;;;;;4970607;28;20205;-78
2023/06/24 00:08:50;;;;;;;6.95;6.35;;;19.00;99.90;;;;;;4968657;28;20205;-78
2023/06/24 00:11:18;;;;;;;6.97;6.38;;;19.10;99.90;;;;;;4953110;28;20214;-78
2023/06/24 00:13:47;;;;;;;6.85;5.82;;;19.10;99.90;;;;;;4951858;28;20229;-78
2023/06/24 00:16:14;;;;;;;6.85;5.63;;;19.20;99.90;;;;;;4940734;28;20583;-78
2023/06/24 00:18:41;;;;;;;7.32;6.05;;;19.20;99.90;;;;;;4967846;28;20217;-78
2023/06/24 00:21:09;;;;;;;6.63;6.03;;;19.00;99.90;;;;;;4961554;28;20201;-78
2023/06/24 00:23:37;;;;;;;6.80;6.20;;;19.00;99.90;;;;;;4968293;28;20225;-78
2023/06/24 00:26:04;;;;;;;6.72;6.13;;;19.10;99.90;;;;;;4955795;28;20551;-78
2023/06/24 00:28:32;;;;;;;6.80;6.20;;;19.40;99.90;;;;;;4955606;29;20197;-78
2023/06/24 00:31:01;;;;;;;7.38;6.10;;;19.20;99.90;;;;;;4962281;28;20202;-77
2023/06/24 00:33:29;;;;;;;6.50;5.90;;;19.00;99.90;;;;;;4939323;28;20217;-78
2023/06/24 00:35:57;;;;;;;6.95;6.22;;;18.90;99.90;;;;;;4960232;28;20232;-78
2023/06/24 00:38:25;;;;;;;7.18;6.32;;;19.00;99.90;;;;;;4947377;29;20197;-78
2023/06/24 00:40:52;;;;;;;9.50;6.78;;;19.30;99.90;;;;;;4951655;28;20206;-78
2023/06/24 00:43:20;;;;;;;6.57;5.82;;;19.60;99.90;;;;;;4946688;28;20600;-77
2023/06/24 00:45:48;;;;;;;8.13;6.38;;;19.50;99.90;;;;;;4943748;28;20199;-78
2023/06/24 00:48:17;;;;;;;12.07;6.35;;;19.10;99.90;;;;;;4962119;28;20212;-77
2023/06/24 00:50:45;;;;;;;8.10;6.35;;;18.80;99.90;;;;;;4949685;28;20194;-78
2023/06/24 00:53:13;;;;;;;7.10;6.40;;;18.60;99.90;;;;;;4946243;28;20236;-78
2023/06/24 00:55:41;;;;;;;6.45;5.55;;;18.70;99.90;;;;;;4951223;28;20193;-78
2023/06/24 00:58:09;;;;;;;7.68;6.32;;;18.80;99.90;;;;;;4949512;29;20217;-78
2023/06/24 01:00:37;;;;;;;7.57;6.38;;;19.00;99.90;;;;;;4949988;28;20205;-78
2023/06/24 01:03:05;;;;;;;6.97;6.28;;;19.10;99.90;;;;;;4955925;28;20226;-78
2023/06/24 01:05:35;;;;;;;6.05;5.55;;;19.20;99.90;;;;;;4959578;28;20664;-78
2023/06/24 01:08:03;;;;;;;6.00;5.30;;;19.20;99.90;;;;;;4935963;29;20226;-78
2023/06/24 01:10:30;;;;;;;6.25;5.45;;;19.30;99.90;;;;;;4942574;29;20201;-78
2023/06/24 01:12:58;;;;;;;6.55;6.03;;;19.30;99.90;;;;;;4948621;28;20579;-77
2023/06/24 01:15:28;;;;;;;8.25;6.70;;;19.20;99.90;;;;;;4952422;28;20208;-77
2023/06/24 01:18:03;;;;;;;7.50;6.80;;;19.10;99.90;;;;;;4960819;28;20221;-78
2023/06/24 01:20:38;;;;;;;9.02;6.90;;;18.80;99.90;;;;;;4951268;29;20205;-78
2023/06/24 01:23:45;;;;;;;7.53;6.82;;;18.70;99.90;;;;;;4971109;28;20225;-78
2023/06/24 01:26:42;;;;;;;9.20;7.00;;;18.50;99.90;;;;;;4936278;28;20683;-78
2023/06/24 01:29:44;;;;;;;7.43;6.57;;;18.70;99.90;;;;;;4970208;28;20576;-78
2023/06/24 01:32:20;;;;;;;7.60;6.63;;;18.70;99.90;;;;;;4923076;28;20205;-77
2023/06/24 01:34:54;;;;;;;7.97;6.10;;;18.70;99.90;;;;;;4937688;29;20205;-78
2023/06/24 01:37:27;;;;;;;7.40;6.70;;;18.80;99.90;;;;;;4945971;29;20213;-77
2023/06/24 01:40:06;;;;;;;7.78;6.88;;;18.80;99.90;;;;;;4949418;29;20209;-78
2023/06/24 01:42:35;;;;;;;7.75;6.80;;;18.80;99.90;;;;;;4947756;28;20229;-77
2023/06/24 01:45:04;;;;;;;7.18;6.22;;;18.90;99.90;;;;;;4967697;28;20310;-78
2023/06/24 01:47:33;;;;;;;7.65;6.85;;;19.00;99.90;;;;;;4951699;29;20202;-78
2023/06/24 01:50:03;;;;;;;12.77;6.68;;;19.00;99.90;;;;;;4968721;28;20198;-78
2023/06/24 01:52:32;;;;;;;7.10;6.50;;;19.10;99.90;;;;;;4954232;28;20233;-78
2023/06/24 01:55:01;;;;;;;7.40;6.72;;;19.10;99.90;;;;;;4950823;28;20579;-77
2023/06/24 01:57:29;;;;;;;8.23;6.72;;;19.20;99.90;;;;;;4955039;28;20229;-78
2023/06/24 01:59:59;;;;;;;9.50;6.68;;;19.20;99.90;;;;;;4953101;28;20201;-78
2023/06/24 02:02:28;;;;;;;8.57;6.40;;;19.20;99.90;;;;;;4967839;28;20209;-77
2023/06/24 02:05:06;;;;;;;7.32;6.55;;;19.20;99.90;;;;;;4947101;28;20202;-78
2023/06/24 02:07:34;;;;;;;9.40;7.20;;;19.30;99.90;;;;;;4964773;28;20200;-78
2023/06/24 02:10:03;;;;;;;7.80;6.70;;;19.20;99.90;;;;;;4949694;29;20198;-77
2023/06/24 02:12:32;;;;;;;7.10;6.35;;;19.40;99.90;;;;;;4953064;28;20221;-78
2023/06/24 02:15:01;;;;;;;8.43;7.07;;;19.50;99.90;;;;;;4962421;28;20202;-77
2023/06/24 02:17:29;;;;;;;7.75;6.38;;;19.80;99.90;;;;;;4945701;29;20213;-78
2023/06/24 02:19:58;;;;;;;7.88;7.10;;;20.40;99.90;;;;;;4965191;28;20194;-78
2023/06/24 02:22:29;;;;;;;7.90;7.10;;;20.50;99.90;;;;;;4959955;28;20201;-78
2023/06/24 02:24:57;;;;;;;8.55;7.68;;;20.30;99.90;;;;;;4971232;28;20194;-78
2023/06/24 02:27:25;;;;;;;8.00;7.20;;;19.90;99.90;;;;;;4945344;28;20197;-78
2023/06/24 02:29:53;;;;;;;11.90;7.70;;;19.70;99.90;;;;;;4945615;28;20210;-78
2023/06/24 02:32:21;;;;;;;10.43;7.68;;;19.40;99.90;;;;;;4949297;28;20206;-77
2023/06/24 02:34:48;;;;;;;9.77;7.03;;;19.40;99.90;;;;;;4949105;28;20739;-77
2023/06/24 02:37:16;;;;;;;7.93;7.13;;;19.40;99.90;;;;;;4941815;28;20221;-77
2023/06/24 02:39:45;;;;;;;8.52;6.78;;;19.50;99.90;;;;;;4944671;28;20213;-77
2023/06/24 02:42:12;;;;;;;6.60;5.85;;;19.80;99.90;;;;;;4951429;28;20217;-78
2023/06/24 02:44:41;;;;;;;8.32;5.90;;;20.30;99.90;;;;;;4944815;28;20205;-77
2023/06/24 02:47:12;;;;;;;7.00;6.30;;;20.70;99.90;;;;;;4944550;29;20191;-78
2023/06/24 02:49:40;;;;;;;8.23;6.65;;;21.00;99.90;;;;;;4957486;28;20217;-77
2023/06/24 02:52:08;;;;;;;8.15;6.45;;;21.00;99.90;;;;;;4941961;28;20201;-78
2023/06/24 02:54:39;;;;;;;9.05;7.30;;;21.10;99.90;;;;;;4929893;29;20194;-78
2023/06/24 02:57:28;;;;;;;8.77;7.20;;;20.80;99.90;;;;;;4940822;28;20237;-77
2023/06/24 03:00:20;;;;;;;8.95;7.25;;;20.00;99.90;;;;;;4945015;28;20209;-77
2023/06/24 03:03:11;;;;;;;8.13;6.60;;;20.10;99.90;;;;;;4926145;28;20225;-78
2023/06/24 03:05:54;;;;;;;8.15;7.35;;;19.90;99.90;;;;;;4964350;28;20209;-78
2023/06/24 03:08:22;;;;;;;8.27;6.93;;;19.60;99.90;;;;;;4951830;29;20202;-78
2023/06/24 03:10:52;;;;;;;10.30;7.72;;;19.60;99.90;;;;;;4995098;23;20220;-77
2023/06/24 03:13:25;;;;;;;8.73;7.65;;;19.60;99.90;;;;;;4980538;28;20208;-77
2023/06/24 03:16:02;;;;;;;7.47;6.70;;;19.70;99.90;;;;;;4989049;28;20215;-77
2023/06/24 03:18:33;;;;;;;8.93;7.20;;;19.70;99.90;;;;;;4990321;28;20224;-77
2023/06/24 03:21:01;;;;;;;7.53;6.80;;;19.70;99.90;;;;;;4989208;28;20227;-77
2023/06/24 03:23:31;;;;;;;7.55;6.72;;;19.70;99.90;;;;;;4991791;28;20692;-77
2023/06/24 03:25:59;;;;;;;7.72;7.00;;;19.60;99.90;;;;;;5007935;28;20212;-77
2023/06/24 03:28:28;;;;;;;8.07;6.75;;;19.60;99.90;;;;;;4992438;28;20207;-77
2023/06/24 03:31:06;;;;;;;7.68;6.88;;;19.70;99.90;;;;;;4992016;28;20240;-78
2023/06/24 03:33:34;;;;;;;7.65;6.65;;;19.80;99.90;;;;;;4978649;28;20205;-78
2023/06/24 03:36:01;;;;;;;8.93;8.00;;;19.70;99.90;;;;;;5002115;28;20215;-78
2023/06/24 03:38:34;;;;;;;8.25;6.97;;;19.60;99.90;;;;;;4991822;28;20209;-78
2023/06/24 03:41:01;;;;;;;8.20;7.40;;;19.60;99.90;;;;;;4983822;28;20216;-78
2023/06/24 03:43:32;;;;;;;9.00;7.20;;;19.40;99.90;;;;;;5006061;28;20211;-78
2023/06/24 03:46:02;;;;;;;7.85;7.15;;;19.40;99.90;;;;;;4985704;28;20570;-78
2023/06/24 03:48:29;;;;;;;9.07;7.53;;;19.40;99.90;;;;;;4999239;28;20196;-78
2023/06/24 03:50:57;;;;;;;8.25;7.45;;;19.30;99.90;;;;;;4984261;28;20584;-78
2023/06/24 03:53:24;;;;;;;8.27;7.22;;;19.50;99.90;;;;;;4995327;28;20196;-78
2023/06/24 03:55:52;;;;;;;7.68;6.97;;;19.90;99.90;;;;;;4989622;28;20210;-78
2023/06/24 03:58:20;;;;;;;7.05;6.35;;;19.50;99.90;;;;;;4989586;28;20223;-78
2023/06/24 04:00:51;;;;;;;8.63;7.50;;;20.20;99.90;;;;;;4982731;28;20220;-78
2023/06/24 04:03:18;;;;;;;7.65;6.93;;;20.50;99.90;;;;;;4987775;28;20208;-78
2023/06/24 04:05:46;;;;;;;8.63;6.90;;;19.80;99.90;;;;;;4985617;28;20659;-78
2023/06/24 04:08:13;;;;;;;8.82;6.85;;;19.90;99.90;;;;;;4988587;28;20200;-78
2023/06/24 04:10:43;;;;;;;7.78;6.75;;;19.90;99.90;;;;;;5001435;28;20239;-77
2023/06/24 04:13:12;;;;;;;9.70;7.10;;;19.60;99.90;;;;;;4982381;28;20212;-79
2023/06/24 04:15:41;;;;;;;8.98;6.72;;;19.40;99.90;;;;;;4995271;28;20211;-78
2023/06/24 04:18:10;;;;;;;7.95;6.88;;;19.80;99.90;;;;;;4987962;28;20212;-78
2023/06/24 04:20:38;;;;;;;7.50;6.47;;;20.10;99.90;;;;;;4989568;28;20216;-78
2023/06/24 04:23:09;;;;;;;9.88;7.15;;;19.90;99.90;;;;;;5005929;28;20201;-78
2023/06/24 04:25:36;;;;;;;8.63;7.20;;;20.10;99.90;;;;;;5001174;28;20207;-78
2023/06/24 04:28:04;;;;;;;8.45;7.53;;;19.80;99.90;;;;;;4991872;28;20193;-78
2023/06/24 04:30:31;;;;;;;7.43;6.72;;;19.40;99.90;;;;;;4993219;28;20223;-78
2023/06/24 04:32:59;;;;;;;9.32;6.90;;;19.70;99.90;;;;;;4990624;28;20200;-78
2023/06/24 04:35:30;;;;;;;7.85;7.10;;;19.80;99.90;;;;;;4990268;28;20211;-78
2023/06/24 04:37:57;;;;;;;8.85;6.30;;;20.30;99.90;;;;;;4990341;28;20223;-78
2023/06/24 04:40:25;;;;;;;7.30;6.18;;;20.60;99.90;;;;;;5003475;28;20239;-78
2023/06/24 04:42:52;;;;;;;7.38;6.63;;;20.90;99.90;;;;;;4986922;28;20208;-78
2023/06/24 04:45:20;;;;;;;8.38;6.35;;;20.70;99.90;;;;;;5006061;28;20205;-78
2023/06/24 04:47:48;;;;;;;7.60;6.80;;;20.80;99.90;;;;;;4991818;28;20192;-78
2023/06/24 04:50:15;;;;;;;7.32;6.30;;;20.70;99.90;;;;;;4988402;28;20688;-79
2023/06/24 04:52:44;;;;;;;7.63;6.85;;;20.80;99.90;;;;;;4990929;28;20215;-78
2023/06/24 04:55:12;;;;;;;8.07;7.28;;;20.40;99.90;;;;;;4994969;28;20566;-79
2023/06/24 04:57:42;;;;;;;10.20;6.57;;;20.50;99.90;;;;;;4992673;28;20664;-79
2023/06/24 05:00:10;;;;;;;8.07;7.28;;;20.30;99.90;;;;;;5002810;28;20200;-79
2023/06/24 05:02:38;;;;;;;8.18;7.05;;;20.10;99.90;;;;;;4986617;28;20204;-79
2023/06/24 05:05:12;;;;;;;7.72;6.78;;;19.90;99.90;;;;;;4989562;28;20216;-78
2023/06/24 05:07:40;;;;;;;7.22;5.97;;;19.80;99.90;;;;;;5007353;28;20200;-78
2023/06/24 05:10:09;;;;;;;7.00;6.30;;;19.90;99.90;;;;;;4992810;28;20204;-78
2023/06/24 05:12:36;;;;;;;8.45;7.10;;;20.00;99.90;;;;;;4984257;28;20192;-78
2023/06/24 05:15:04;;;;;;;7.38;6.68;;;19.90;99.90;;;;;;5008197;28;20585;-78
2023/06/24 05:17:32;;;;;;;7.90;7.03;;;20.00;99.90;;;;;;4992398;28;20573;-78
2023/06/24 05:19:59;;;;;;;7.85;6.70;;;20.10;99.90;;;;;;4992298;28;20585;-78
2023/06/24 05:22:27;;;;;;;6.70;6.10;;;20.20;99.90;;;;;;5006415;28;20223;-78
2023/06/24 05:25:15;;;;;;;8.85;6.60;;;20.30;99.90;;;;;;5006853;28;20207;-78
2023/06/24 05:27:44;;;;;;;7.38;6.28;;;20.50;99.90;;;;;;4992230;28;20189;-78
2023/06/24 05:30:12;;;;;;;7.68;6.78;;;20.30;99.90;;;;;;5010167;28;20204;-78
2023/06/24 05:32:40;;;;;;;6.65;6.05;;;20.30;99.90;;;;;;5000063;28;20220;-78
2023/06/24 05:35:09;;;;;;;7.00;6.30;;;20.30;99.90;;;;;;4993688;28;20208;-79
2023/06/24 05:37:36;;;;;;;8.50;6.57;;;20.60;99.90;;;;;;4990106;28;20205;-78
2023/06/24 05:40:06;;;;;;;7.00;6.22;;;20.30;99.90;;;;;;4991518;28;20221;-78
2023/06/24 05:42:35;;;;;;;6.47;5.82;;;20.40;99.90;;;;;;4990491;28;20196;-77
2023/06/24 05:45:02;;;;;;;7.50;6.78;;;20.40;99.90;;;;;;4991853;28;20227;-78
2023/06/24 05:47:30;;;;;;;6.88;6.18;;;20.50;99.90;;;;;;4990648;28;20208;-78
2023/06/24 05:50:00;;;;;;;9.68;6.22;;;20.50;99.90;;;;;;5006375;28;20693;-78
2023/06/24 05:52:29;;;;;;;6.57;5.95;;;20.90;99.90;;;;;;4986573;28;20204;-78
2023/06/24 05:54:56;;;;;;;9.15;6.50;;;21.20;99.90;;;;;;4991885;28;20208;-78
2023/06/24 05:57:24;;;;;;;7.95;7.13;;;21.20;99.90;;;;;;4991556;28;20207;-78
2023/06/24 05:59:52;;;;;;;7.03;6.25;;;21.20;99.90;;;;;;5004064;28;20223;-79
2023/06/24 06:02:20;;;;;;;7.18;6.50;;;21.10;99.90;;;;;;4985746;28;20227;-79
2023/06/24 06:04:48;;;;;;;6.82;6.22;;;21.00;99.90;;;;;;4990900;28;20196;-78
2023/06/24 06:07:15;;;;;;;5.82;5.22;;;21.50;99.90;;;;;;4987177;28;20194;-77
2023/06/24 06:09:43;;;;;;;7.65;5.35;;;21.40;99.90;;;;;;4990621;28;20284;-77
2023/06/24 06:12:11;;;;;;;6.75;5.93;;;21.70;99.90;;;;;;5006098;28;20247;-77
2023/06/24 06:14:39;;;;;;;6.57;5.38;;;21.50;99.90;;;;;;5006711;28;20207;-78
2023/06/24 06:17:44;;;;;;;7.30;6.05;;;21.60;99.90;;;;;;5007159;28;20207;-78
2023/06/24 06:20:12;;;;;;;7.57;5.85;;;21.70;99.90;;;;;;4991708;28;20231;-78
2023/06/24 06:22:39;;;;;;;6.65;5.90;;;21.50;99.90;;;;;;5002600;28;20204;-78
2023/06/24 06:25:07;;;;;;;6.85;6.15;;;21.40;99.90;;;;;;4986796;28;20188;-78
2023/06/24 06:27:49;;;;;;;7.78;6.10;;;21.40;99.90;;;;;;4999784;28;20207;-78
2023/06/24 06:30:17;;;;;;;7.03;5.72;;;21.20;99.90;;;;;;4987841;28;20192;-78
2023/06/24 06:32:46;;;;;;;7.35;6.53;;;21.50;99.90;;;;;;5000297;28;20215;-78
2023/06/24 06:35:13;;;;;;;8.35;6.55;;;21.40;99.90;;;;;;4988501;28;20203;-78
2023/06/24 06:37:41;;;;;;;7.80;6.95;;;21.30;99.90;;;;;;4988603;28;20204;-77
2023/06/24 06:40:09;;;;;;;9.27;7.13;;;21.40;99.90;;;;;;5004600;28;20216;-77
2023/06/24 06:42:37;;;;;;;7.85;6.70;;;21.40;99.90;;;;;;4997876;28;20208;-77
2023/06/24 06:45:05;;;;;;;9.63;7.28;;;21.60;99.90;;;;;;4983825;28;20212;-77
2023/06/24 06:47:33;;;;;;;9.05;7.25;;;21.60;99.90;;;;;;5005135;28;20211;-78
2023/06/24 06:50:02;;;;;;;8.52;7.63;;;21.60;99.90;;;;;;4989109;28;20199;-78
2023/06/24 06:52:29;;;;;;;10.07;8.70;;;21.60;99.90;;;;;;4990293;28;20945;-78
2023/06/24 06:54:56;;;;;;;9.55;8.65;;;21.70;99.90;;;;;;4989288;28;20204;-78
2023/06/24 06:57:24;;;;;;;9.20;7.63;;;21.70;99.90;;;;;;4986199;28;20211;-78
2023/06/24 07:00:03;;;;;;;9.30;8.38;;;21.70;99.90;;;;;;4987598;28;20701;-78
2023/06/24 07:02:30;;;;;;;8.07;7.15;;;21.80;99.90;;;;;;4996818;28;20201;-78
2023/06/24 07:05:01;;;;;;;11.43;8.00;;;21.90;99.90;;;;;;4986837;28;20215;-78
2023/06/24 07:07:32;;;;;;;9.52;8.52;;;21.90;99.90;;;;;;5004529;28;20204;-78
2023/06/24 07:10:06;;;;;;;10.82;9.20;;;22.00;99.90;;;;;;4988516;28;20197;-78
2023/06/24 07:12:34;;;;;;;10.15;9.13;;;21.90;99.90;;;;;;4983425;28;20214;-78
2023/06/24 07:15:01;;;;;;;11.45;8.73;;;22.10;99.90;;;;;;4983025;28;20202;-78
2023/06/24 07:17:29;;;;;;;11.90;9.63;;;22.20;99.90;;;;;;4999562;28;20200;-78
2023/06/24 07:19:56;;;;;;;13.88;8.70;;;22.10;99.90;;;;;;4981860;28;20220;-78
2023/06/24 07:22:25;;;;;;;9.02;8.23;;;22.20;99.90;;;;;;4985823;28;20224;-78
2023/06/24 07:24:52;;;;;;;11.82;9.40;;;22.30;99.90;;;;;;4984637;28;20235;-78
2023/06/24 07:27:20;;;;;;;9.88;8.98;;;22.40;99.90;;;;;;5004343;28;20204;-78
2023/06/24 07:29:47;;;;;;;10.82;9.73;;;22.40;99.90;;;;;;4987337;28;20199;-78
2023/06/24 07:32:14;;;;;;;10.15;9.07;;;22.60;99.90;;;;;;4983829;28;20655;-78
2023/06/24 07:34:42;;;;;;;10.52;9.45;;;22.60;99.90;;;;;;4999993;28;20200;-78
2023/06/24 07:37:09;;;;;;;10.27;8.85;;;22.50;99.90;;;;;;4987661;28;20223;-78
2023/06/24 07:39:38;;;;;;;11.25;10.15;;;22.70;99.90;;;;;;5003956;28;20220;-78
2023/06/24 07:42:06;;;;;;;13.30;11.88;;;22.60;99.90;;;;;;4989180;28;20231;-78
2023/06/24 07:44:33;;;;;;;13.50;12.15;;;22.50;99.90;;;;;;4985353;28;20212;-77
2023/06/24 07:47:00;;;;;;;15.43;12.43;;;22.40;99.90;;;;;;4988607;28;20681;-77
2023/06/24 07:49:28;;;;;;;11.73;10.57;;;22.30;99.90;;;;;;4985462;28;20197;-78
2023/06/24 07:51:55;;;;;;;14.65;13.15;;;22.50;99.90;;;;;;4987485;28;20235;-77
2023/06/24 07:54:23;;;;;;;12.20;10.90;;;22.40;99.90;;;;;;5006061;28;20196;-78
2023/06/24 07:56:51;;;;;;;13.55;11.57;;;22.60;99.90;;;;;;4983928;28;20207;-78
2023/06/24 07:59:19;;;;;;;15.73;12.30;;;22.80;99.90;;;;;;4990655;28;20212;-78
2023/06/24 08:01:46;;;;;;;12.95;11.10;;;22.80;99.90;;;;;;5007257;28;20228;-78
2023/06/24 08:04:15;;;;;;;12.95;11.45;;;22.80;99.90;;;;;;4986634;28;20205;-78
2023/06/24 08:06:43;;;;;;;13.07;11.77;;;22.90;99.90;;;;;;4985522;28;20247;-78
2023/06/24 08:09:10;;;;;;;13.75;11.93;;;22.90;99.90;;;;;;4989494;28;20204;-78
2023/06/24 08:11:38;;;;;;;13.07;11.77;;;22.80;99.90;;;;;;4983820;28;20235;-78
2023/06/24 08:14:06;;;;;;;11.77;10.57;;;23.00;99.90;;;;;;4988967;28;20208;-78
2023/06/24 08:16:34;;;;;;;13.85;12.43;;;23.10;99.90;;;;;;4986633;28;20200;-78
2023/06/24 08:19:01;;;;;;;13.68;12.27;;;23.20;99.90;;;;;;4985217;28;20203;-78
2023/06/24 08:21:29;;;;;;;15.45;12.55;;;23.30;99.90;;;;;;4985297;28;20229;-77
2023/06/24 08:23:57;;;;;;;14.05;12.75;;;23.30;99.90;;;;;;4982133;28;20200;-78
2023/06/24 08:26:24;;;;;;;14.45;13.00;;;23.30;99.90;;;;;;4989421;28;20192;-78
2023/06/24 08:28:52;;;;;;;15.43;12.70;;;23.20;99.90;;;;;;4991185;28;20196;-78
2023/06/24 08:31:22;;;;;;;14.65;13.13;;;23.30;99.90;;;;;;4990564;28;20208;-78
2023/06/24 08:33:53;;;;;;;19.15;16.58;;;23.50;99.90;;;;;;5002819;28;20576;-78
2023/06/24 08:36:22;;;;;;;20.38;17.38;;;23.20;99.90;;;;;;4990518;28;20552;-78
2023/06/24 08:38:49;;;;;;;18.30;14.90;;;23.10;99.90;;;;;;4990965;28;20204;-78
2023/06/24 08:41:16;;;;;;;18.05;16.27;;;23.30;99.90;;;;;;4992454;28;20215;-78
2023/06/24 08:43:44;;;;;;;16.55;14.85;;;23.50;99.90;;;;;;4989575;28;20572;-78
2023/06/24 08:46:12;;;;;;;14.10;12.73;;;23.60;99.90;;;;;;5003817;28;20202;-78
2023/06/24 08:48:45;;;;;;;16.02;14.43;;;23.70;99.90;;;;;;4989476;28;20208;-78
2023/06/24 08:51:21;;;;;;;13.75;12.30;;;23.70;99.90;;;;;;5005139;28;20225;-78
2023/06/24 08:53:49;;;;;;;15.93;12.63;;;23.80;99.90;;;;;;4990810;28;20210;-78
2023/06/24 08:56:17;;;;;;;14.40;11.52;;;23.80;99.90;;;;;;4994631;28;20211;-78
2023/06/24 08:58:45;;;;;;;12.90;10.98;;;24.00;99.90;;;;;;4991804;28;20600;-78
2023/06/24 09:01:13;;;;;;;15.23;13.52;;;24.10;99.90;;;;;;4982447;28;20232;-78
2023/06/24 09:03:42;;;;;;;14.05;12.65;;;23.90;99.90;;;;;;4988757;28;20585;-78
2023/06/24 09:06:09;;;;;;;14.35;10.88;;;23.90;99.90;;;;;;4993350;28;20201;-78
2023/06/24 09:08:39;;;;;;;10.95;9.82;;;23.90;99.90;;;;;;4994690;28;20206;-78
2023/06/24 09:11:09;;;;;;;12.60;11.27;;;24.00;99.90;;;;;;5010773;28;20307;-78
2023/06/24 09:13:37;;;;;;;11.93;9.50;;;24.10;99.90;;;;;;4995938;28;20215;-78
2023/06/24 09:16:15;;;;;;;9.57;8.48;;;24.10;99.90;;;;;;4990609;28;20201;-79
2023/06/24 09:18:49;;;;;;;11.70;10.35;;;24.20;99.90;;;;;;4988990;28;20680;-79
2023/06/24 09:21:31;;;;;;;11.30;9.18;;;24.10;99.90;;;;;;5006900;28;20228;-79
2023/06/24 09:24:28;;;;;;;;;;;;;;;;;;;;;
2023/06/24 09:27:06;;;;;;;11.07;9.32;;;24.30;99.90;;;;;;4995445;28;20188;-79
2023/06/24 09:30:12;;;;;;;;;;;;;;;;;;;;;
2023/06/24 09:32:53;;;;;;;7.53;6.40;;;24.00;99.90;;;;;;4908543;29;20214;-78
2023/06/24 09:35:25;;;;;;;9.65;8.25;;;24.20;99.90;;;;;;4976775;28;20212;-78
2023/06/24 09:37:53;;;;;;;10.43;9.13;;;24.20;99.90;;;;;;4987318;28;20200;-79
2023/06/24 09:40:21;;;;;;;9.70;8.70;;;24.20;99.90;;;;;;4990440;28;20234;-79
2023/06/24 09:42:53;;;;;;;9.35;8.35;;;24.10;99.90;;;;;;5005877;28;20200;-79
2023/06/24 09:45:23;;;;;;;8.80;7.35;;;24.40;99.90;;;;;;4993613;28;20201;-79
2023/06/24 09:47:50;;;;;;;8.45;7.60;;;24.50;99.90;;;;;;4997806;28;20212;-79
2023/06/24 09:50:18;;;;;;;9.20;7.63;;;24.50;99.90;;;;;;4994529;28;20204;-79
2023/06/24 09:52:49;;;;;;;8.80;7.90;;;24.40;99.90;;;;;;4998285;28;20206;-79
2023/06/24 09:55:18;;;;;;;10.25;7.70;;;24.50;99.90;;;;;;4992659;28;20227;-79
2023/06/24 09:57:48;;;;;;;10.05;7.95;;;24.40;99.90;;;;;;4994063;28;20213;-79
2023/06/24 10:00:19;;;;;;;9.55;6.28;;;24.50;99.90;;;;;;4992084;28;20211;-79
2023/06/24 10:02:48;;;;;;;7.05;6.25;;;24.60;99.90;;;;;;5020710;28;20208;-79
2023/06/24 10:05:16;;;;;;;7.40;6.40;;;24.80;99.90;;;;;;4993656;28;20204;-79
2023/06/24 10:07:50;;;;;;;6.75;6.03;;;24.80;99.80;;;;;;4993283;28;20212;-80
2023/06/24 10:10:18;;;;;;;8.63;5.68;;;24.80;99.20;;;;;;4992585;28;20200;-79
2023/06/24 10:12:45;;;;;;;8.13;5.65;;;24.80;97.60;;;;;;4999317;28;20216;-78
2023/06/24 10:15:13;;;;;;;6.55;5.72;;;24.80;97.20;;;;;;5005773;28;20205;-79
2023/06/24 10:17:40;;;;;;;6.63;5.80;;;24.80;97.20;;;;;;4993836;28;20792;-79
2023/06/24 10:20:09;;;;;;;5.82;5.00;;;24.70;97.20;;;;;;4992983;28;20211;-78
2023/06/24 10:22:36;;;;;;;6.70;5.80;;;24.80;97.40;;;;;;5010842;28;20667;-78
2023/06/24 10:25:07;;;;;;;5.95;5.35;;;24.80;96.80;;;;;;4992985;28;20210;-78
2023/06/24 10:27:42;;;;;;;6.70;4.80;;;24.90;96.20;;;;;;4992645;28;20204;-78
2023/06/24 10:30:17;;;;;;;6.47;4.75;;;25.00;96.20;;;;;;4993609;28;20196;-78
2023/06/24 10:32:44;;;;;;;6.32;4.72;;;25.10;95.90;;;;;;4991797;28;20203;-79
2023/06/24 10:35:24;;;;;;;4.93;4.38;;;25.10;93.60;;;;;;4984938;28;20208;-78
2023/06/24 10:37:58;;;;;;;5.70;4.70;;;25.00;93.20;;;;;;4995769;28;20196;-78
2023/06/24 10:40:45;;;;;;;5.75;4.55;;;25.20;94.30;;;;;;4985552;28;20228;-78
2023/06/24 10:43:28;;;;;;;5.28;4.45;;;25.30;91.90;;;;;;4987604;28;20224;-78
2023/06/24 10:45:57;;;;;;;5.40;4.05;;;25.50;92.00;;;;;;4992260;28;20518;-79
2023/06/24 10:48:25;;;;;;;4.80;4.30;;;25.30;89.70;;;;;;4985289;28;20666;-79
2023/06/24 10:50:52;;;;;;;4.53;3.88;;;25.30;89.70;;;;;;4994911;28;20220;-79
2023/06/24 10:53:20;;;;;;;5.25;4.13;;;25.40;88.90;;;;;;4992347;28;20566;-78
2023/06/24 10:55:48;;;;;;;4.53;3.80;;;25.50;90.00;;;;;;4996160;28;20188;-78
2023/06/24 10:58:16;;;;;;;4.55;4.05;;;25.30;87.00;;;;;;4993434;28;20204;-79
2023/06/24 11:00:45;;;;;;;4.28;3.50;;;25.50;86.40;;;;;;5002701;28;20224;-79
2023/06/24 11:03:14;;;;;;;6.75;4.00;;;25.60;86.40;;;;;;5010046;28;20207;-78
2023/06/24 11:05:43;;;;;;;3.63;3.25;;;25.60;85.40;;;;;;4991294;28;20208;-78
2023/06/24 11:08:11;;;;;;;4.10;3.67;;;25.80;84.40;;;;;;5003429;28;20210;-79
2023/06/24 11:10:49;;;;;;;5.13;4.57;;;25.80;83.30;;;;;;4995877;28;20228;-78
2023/06/24 11:13:21;;;;;;;4.75;3.83;;;25.80;83.30;;;;;;4996959;28;20295;-79
2023/06/24 11:15:49;;;;;;;4.03;3.53;;;26.10;85.20;;;;;;4999493;28;20404;-79
2023/06/24 11:18:20;;;;;;;5.50;3.28;;;26.30;85.30;;;;;;4994503;28;20560;-78
2023/06/24 11:20:48;;;;;;;3.60;3.30;;;26.20;81.20;;;;;;4977394;28;20704;-78
2023/06/24 11:23:15;;;;;;;4.10;3.70;;;26.30;83.80;;;;;;5009524;28;20208;-78
2023/06/24 11:25:44;;;;;;;6.82;4.00;;;26.10;82.60;;;;;;5011062;28;20549;-79
2023/06/24 11:28:18;;;;;;;4.13;3.63;;;26.20;83.50;;;;;;5010450;28;20211;-78
2023/06/24 11:30:45;;;;;;;3.80;3.40;;;26.20;82.60;;;;;;5009477;28;20229;-79
2023/06/24 11:33:34;;;;;;;4.78;3.53;;;26.40;82.50;;;;;;5009559;28;20207;-78
2023/06/24 11:36:02;;;;;;;4.82;3.38;;;26.40;76.50;;;;;;5012925;28;20204;-78
2023/06/24 11:38:31;;;;;;;3.70;3.40;;;26.30;75.40;;;;;;5014441;28;20200;-79
2023/06/24 11:40:59;;;;;;;5.00;3.33;;;26.50;72.40;;;;;;5019994;28;20223;-78
2023/06/24 11:43:28;;;;;;;5.45;3.40;;;26.50;67.10;;;;;;5010099;28;20200;-79
2023/06/24 11:46:03;;;;;;;3.58;3.28;;;26.60;71.50;;;;;;5005718;28;20195;-78
2023/06/24 11:48:31;;;;;;;4.60;3.13;;;26.80;67.90;;;;;;5012896;28;20199;-79
2023/06/24 11:50:59;;;;;;;3.47;3.13;;;26.90;65.90;;;;;;5024579;28;20219;-78
2023/06/24 11:53:31;;;;;;;3.13;2.90;;;27.00;66.00;;;;;;5029112;28;20203;-79
2023/06/24 11:55:59;;;;;;;3.50;3.05;;;27.10;59.90;;;;;;5008297;28;20204;-79
2023/06/24 11:58:34;;;;;;;3.45;2.97;;;27.20;57.50;;;;;;5022064;28;20191;-78
2023/06/24 12:01:02;;;;;;;3.30;3.00;;;27.20;59.30;;;;;;5009619;28;20223;-79
2023/06/24 12:04:07;;;;;;;3.35;2.97;;;27.40;59.60;;;;;;5025639;28;20200;-78
2023/06/24 12:06:42;;;;;;;3.53;3.22;;;26.90;58.40;;;;;;5009989;28;20210;-78
2023/06/24 12:09:21;;;;;;;3.50;3.15;;;27.00;59.60;;;;;;5009281;28;20588;-78
2023/06/24 12:11:49;;;;;;;4.10;2.80;;;27.30;60.00;;;;;;5006909;28;20242;-78
2023/06/24 12:14:18;;;;;;;2.90;2.60;;;27.20;55.40;;;;;;5010821;28;20215;-78
2023/06/24 12:16:48;;;;;;;5.13;3.30;;;27.40;56.60;;;;;;5024132;28;20212;-78
2023/06/24 12:19:15;;;;;;;3.42;3.05;;;27.40;56.30;;;;;;5026511;28;20200;-78
2023/06/24 12:21:43;;;;;;;4.03;3.20;;;27.40;57.30;;;;;;5007376;28;20219;-79
2023/06/24 12:24:10;;;;;;;3.75;3.40;;;27.30;58.60;;;;;;5008917;28;20196;-79
2023/06/24 12:26:38;;;;;;;4.05;3.20;;;27.60;56.30;;;;;;5010232;28;20196;-79
2023/06/24 12:29:10;;;;;;;3.95;3.38;;;27.30;58.50;;;;;;5009420;28;20211;-78
2023/06/24 12:31:39;;;;;;;4.35;3.20;;;27.30;57.00;;;;;;5006941;28;20222;-78
2023/06/24 12:34:07;;;;;;;4.18;3.40;;;27.60;54.50;;;;;;5008913;28;20200;-78
2023/06/24 12:36:34;;;;;;;4.50;3.47;;;27.60;55.80;;;;;;5010085;28;20207;-78
2023/06/24 12:39:02;;;;;;;3.85;3.53;;;27.50;54.80;;;;;;5011365;28;20200;-79
2023/06/24 12:41:29;;;;;;;3.50;3.20;;;27.70;53.30;;;;;;5016373;28;20597;-78
2023/06/24 12:43:57;;;;;;;4.43;2.75;;;27.50;51.40;;;;;;5009796;28;20207;-79
2023/06/24 12:46:24;;;;;;;3.05;2.75;;;27.90;50.20;;;;;;5009111;28;20202;-78
2023/06/24 12:48:53;;;;;;;4.38;3.10;;;28.20;49.80;;;;;;5015901;28;20203;-78
2023/06/24 12:51:20;;;;;;;4.40;3.22;;;27.90;48.90;;;;;;5028860;28;20588;-78
2023/06/24 12:53:48;;;;;;;4.88;3.55;;;28.10;50.20;;;;;;5008117;28;20243;-78
2023/06/24 12:56:15;;;;;;;3.60;3.08;;;28.30;52.00;;;;;;5013083;28;20219;-78
2023/06/24 12:59:02;;;;;;;3.85;3.17;;;28.50;51.70;;;;;;5014551;28;20550;-78
2023/06/24 13:01:29;;;;;;;4.47;3.70;;;28.30;49.10;;;;;;5005341;28;20230;-78